Carrier Mills, Illinois
Current Conditions -  °F | °C
As of 1:15 AM on Sunday 23 Nov 2014 (Local Time) from KHSB Reporting Station
Clear Clear  
Wind Chill: 42°   Ceiling: Unl
Heat Index: 46°   Visibility: 10mi
Dew Point: 38°   Wind: 7mph
Humidity: 73%   Direction: 140°SE
Pressure: 29.94"   Gusts: NA
Location:  37.68°N, 88.63°W
Report Text: KHSB 230715Z AUTO 14006KT 10SM CLR 08/03 A2994 RMK AO2 T00770031
Loading
Personal Weather Stations






























Interactive Weather Map New forecast layout! Learn more

10-Day Weather Forecast

Advertisements
Track Severe Weather on mobile